CNF4 weather

Kawartha Lakes (Lindsay) Airport
Lindsay, Ontario, Canada

Public forecast

Using degrees Celsius for public forecast. Weather courtesy of forecast.io.

Closest aviation weather report (METAR) to Kawartha Lakes (Lindsay) Airport

Closest report is Peterborough Airport, 19.8 nm (36.7 km) ESE. Retrieved 2019/12/16 02:00 UTC (8 minutes ago):

CYPQ 160200Z AUTO 22005KT 9SM -SN OVC044 M06/M07 A3010 RMK SLP205

Closest aviation forecast (TAF) to Kawartha Lakes (Lindsay) Airport

Forecast is more than 6 hours old.

Closest forecast is Peterborough Airport, 19.8 nm (36.7 km) ESE. Retrieved 2019/12/15 20:00 UTC (6 hours ago):

TAF CYPQ 151940Z 1520/1603 29012G22KT P6SM SCT030 TEMPO 1520/1603 P6SM -SN BKN020 BECMG 1522/1524 28008KT RMK FCST BASED ON AUTO OBS NXT FCST WILL BE ISSUED AT 161045Z